createdAt,value
2023-05-09T00:01:23.405Z,32.66
2023-05-09T00:03:51.444Z,31.98
2023-05-09T00:06:19.515Z,31.00
2023-05-09T00:08:46.167Z,33.27
2023-05-09T00:11:12.776Z,33.62
2023-05-09T00:13:39.423Z,32.94
2023-05-09T00:16:06.480Z,32.50
2023-05-09T00:18:34.096Z,32.34
2023-05-09T00:21:03.088Z,33.86
2023-05-09T00:23:32.786Z,33.51
2023-05-09T00:25:59.623Z,33.18
2023-05-09T00:28:26.634Z,33.95
2023-05-09T00:30:53.683Z,33.68
2023-05-09T00:33:20.799Z,34.00
2023-05-09T00:35:47.422Z,33.84
2023-05-09T00:38:14.111Z,33.86
2023-05-09T00:40:40.661Z,33.83
2023-05-09T00:43:07.484Z,34.17
2023-05-09T00:45:34.717Z,33.75
2023-05-09T00:48:01.420Z,33.97
2023-05-09T00:50:28.378Z,35.38
2023-05-09T00:52:55.595Z,34.75
2023-05-09T00:55:23.701Z,34.26
2023-05-09T00:57:50.388Z,33.95
2023-05-09T01:00:17.714Z,33.07
2023-05-09T01:02:53.005Z,33.21
2023-05-09T01:05:20.426Z,34.74
2023-05-09T01:08:13.093Z,34.13
2023-05-09T01:10:48.042Z,33.66
2023-05-09T01:13:56.209Z,33.26
2023-05-09T01:16:48.239Z,31.97
2023-05-09T01:19:47.316Z,33.22
2023-05-09T01:22:16.451Z,30.71
2023-05-09T01:24:49.219Z,31.78
2023-05-09T01:27:39.216Z,33.80
2023-05-09T01:30:10.063Z,32.77
2023-05-09T01:32:39.707Z,34.80
2023-05-09T01:35:12.873Z,33.94
2023-05-09T01:37:43.410Z,34.18
2023-05-09T01:40:20.814Z,33.35
2023-05-09T01:43:07.880Z,33.06
2023-05-09T01:45:36.332Z,34.59
2023-05-09T01:48:05.178Z,35.71
2023-05-09T01:50:35.526Z,35.18
2023-05-09T01:53:05.810Z,35.87
2023-05-09T01:55:36.150Z,35.69
2023-05-09T01:58:05.898Z,35.63
2023-05-09T02:00:34.775Z,36.24
2023-05-09T02:03:04.067Z,36.72
2023-05-09T02:05:33.255Z,36.42
2023-05-09T02:08:01.153Z,36.68
2023-05-09T02:10:28.861Z,37.04
2023-05-09T02:12:56.465Z,37.17
2023-05-09T02:15:23.292Z,36.15
2023-05-09T02:17:50.156Z,36.81
2023-05-09T02:20:16.814Z,37.92
2023-05-09T02:22:44.465Z,36.96
2023-05-09T02:25:15.981Z,36.04
2023-05-09T02:27:45.923Z,37.05
2023-05-09T02:30:18.134Z,37.54
2023-05-09T02:32:48.958Z,37.20
2023-05-09T02:35:18.399Z,36.76
2023-05-09T02:37:46.260Z,36.79
2023-05-09T02:40:14.359Z,35.94
2023-05-09T02:42:41.314Z,36.02
2023-05-09T02:45:10.497Z,36.23
2023-05-09T02:47:38.129Z,37.11
2023-05-09T02:50:05.897Z,36.80
2023-05-09T02:52:32.505Z,37.36
2023-05-09T02:54:59.147Z,37.09
2023-05-09T02:57:25.773Z,36.06
2023-05-09T02:59:52.431Z,36.34
2023-05-09T03:02:19.144Z,37.69
2023-05-09T03:04:45.997Z,36.55
2023-05-09T03:07:12.680Z,37.14
2023-05-09T03:09:41.070Z,36.75
2023-05-09T03:12:08.065Z,36.02
2023-05-09T03:14:34.631Z,34.56
2023-05-09T03:17:01.230Z,35.33
2023-05-09T03:19:27.825Z,34.20
2023-05-09T03:21:54.397Z,33.73
2023-05-09T03:24:21.673Z,34.48
2023-05-09T03:26:48.252Z,36.22
2023-05-09T03:29:14.895Z,36.59
2023-05-09T03:31:41.527Z,35.36
2023-05-09T03:34:12.996Z,33.89
2023-05-09T03:36:39.604Z,32.62
2023-05-09T03:39:06.304Z,33.25
2023-05-09T03:41:32.936Z,32.17
2023-05-09T03:43:59.503Z,34.29
2023-05-09T03:46:26.196Z,35.38
2023-05-09T03:48:52.805Z,34.54
2023-05-09T03:51:20.628Z,35.23
2023-05-09T03:53:47.915Z,35.88
2023-05-09T03:56:14.517Z,35.23
2023-05-09T03:58:41.110Z,34.45
2023-05-09T04:01:07.789Z,35.12
2023-05-09T04:03:34.436Z,34.85
2023-05-09T04:06:01.250Z,34.91
2023-05-09T04:08:28.019Z,34.00
2023-05-09T04:10:54.655Z,34.56
2023-05-09T04:13:21.342Z,33.79
2023-05-09T04:15:48.040Z,33.85
2023-05-09T04:18:14.798Z,33.15
2023-05-09T04:20:41.457Z,32.63
2023-05-09T04:23:08.102Z,33.86
2023-05-09T04:25:35.496Z,31.83
2023-05-09T04:28:02.360Z,32.07
2023-05-09T04:30:29.137Z,32.66
2023-05-09T04:32:56.034Z,31.67
2023-05-09T04:35:22.801Z,31.28
2023-05-09T04:37:49.918Z,30.25
2023-05-09T04:40:16.874Z,30.98
2023-05-09T04:42:43.523Z,30.38
2023-05-09T04:45:11.742Z,29.44
2023-05-09T04:47:38.649Z,29.53
2023-05-09T04:50:05.931Z,29.77
2023-05-09T04:52:32.583Z,29.86
2023-05-09T04:54:59.303Z,28.68
2023-05-09T04:57:25.869Z,27.77
2023-05-09T04:59:53.028Z,27.06
2023-05-09T05:02:21.134Z,27.21
2023-05-09T05:04:47.875Z,27.34
2023-05-09T05:07:14.577Z,27.30
2023-05-09T05:09:41.307Z,26.93
2023-05-09T05:12:09.797Z,26.95
2023-05-09T05:14:36.744Z,26.43
2023-05-09T05:17:03.394Z,26.49
2023-05-09T05:19:30.247Z,25.89
2023-05-09T05:21:56.853Z,25.89
2023-05-09T05:24:23.442Z,25.01
2023-05-09T05:26:50.101Z,25.22
2023-05-09T05:29:17.617Z,24.09
2023-05-09T05:31:44.332Z,24.63
2023-05-09T05:34:10.930Z,24.01
2023-05-09T05:36:37.638Z,23.76
2023-05-09T05:39:04.491Z,23.92
2023-05-09T05:41:31.526Z,22.52
2023-05-09T05:43:58.116Z,22.51
2023-05-09T05:46:24.790Z,21.88
2023-05-09T05:48:51.435Z,22.36
2023-05-09T05:51:18.055Z,22.46
2023-05-09T05:53:44.635Z,22.12
2023-05-09T05:56:11.193Z,22.16
2023-05-09T05:58:38.285Z,21.07
2023-05-09T06:01:05.077Z,21.48
2023-05-09T06:03:32.142Z,21.27
2023-05-09T06:05:59.382Z,20.44
2023-05-09T06:08:26.001Z,19.88
2023-05-09T06:10:52.697Z,19.98
2023-05-09T06:13:19.388Z,20.44
2023-05-09T06:15:46.091Z,20.31
2023-05-09T06:18:13.096Z,20.53
2023-05-09T06:20:39.698Z,20.02
2023-05-09T06:23:06.320Z,20.51
2023-05-09T06:25:32.959Z,20.39
2023-05-09T06:27:59.661Z,19.17
2023-05-09T06:30:27.170Z,20.06
2023-05-09T06:32:55.062Z,20.75
2023-05-09T06:35:21.989Z,20.44
2023-05-09T06:37:49.125Z,21.23
2023-05-09T06:40:16.729Z,20.63
2023-05-09T06:42:43.408Z,20.46
2023-05-09T06:45:10.627Z,20.56
2023-05-09T06:47:37.354Z,20.63
2023-05-09T06:50:04.188Z,20.54
2023-05-09T06:52:30.868Z,20.65
2023-05-09T06:54:57.430Z,20.83
2023-05-09T06:57:24.223Z,21.24
2023-05-09T06:59:51.010Z,21.53
2023-05-09T07:02:17.806Z,20.49
2023-05-09T07:04:44.468Z,21.12
2023-05-09T07:07:11.217Z,20.73
2023-05-09T07:09:37.909Z,21.58
2023-05-09T07:12:04.846Z,20.84
2023-05-09T07:14:31.484Z,21.49
2023-05-09T07:17:09.989Z,20.99
2023-05-09T07:19:44.619Z,20.75
2023-05-09T07:22:11.249Z,20.51
2023-05-09T07:24:37.949Z,21.39
2023-05-09T07:27:04.648Z,21.79
2023-05-09T07:29:31.346Z,20.06
2023-05-09T07:31:57.976Z,20.39
2023-05-09T07:34:25.536Z,19.41
2023-05-09T07:36:52.317Z,20.47
2023-05-09T07:39:19.062Z,20.86
2023-05-09T07:41:47.869Z,20.07
2023-05-09T07:44:15.810Z,19.43
2023-05-09T07:46:42.730Z,20.30
2023-05-09T07:49:09.376Z,18.78
2023-05-09T07:51:35.987Z,20.07
2023-05-09T07:54:02.567Z,19.46
2023-05-09T07:56:33.500Z,20.20
2023-05-09T07:59:00.408Z,18.96
2023-05-09T08:01:27.006Z,19.45
2023-05-09T08:03:53.787Z,19.99
2023-05-09T08:06:20.556Z,19.19
2023-05-09T08:08:47.158Z,20.04
2023-05-09T08:11:13.788Z,18.99
2023-05-09T08:13:40.472Z,18.76
2023-05-09T08:16:07.221Z,19.76
2023-05-09T08:18:33.858Z,18.91
2023-05-09T08:21:00.994Z,18.62
2023-05-09T08:23:27.962Z,19.04
2023-05-09T08:25:55.335Z,17.57
2023-05-09T08:28:24.321Z,18.90
2023-05-09T08:30:51.627Z,18.71
2023-05-09T08:33:18.298Z,17.96
2023-05-09T08:35:44.950Z,18.54
2023-05-09T08:38:11.572Z,17.91
2023-05-09T08:40:38.377Z,18.68
2023-05-09T08:43:07.533Z,16.84
2023-05-09T08:45:47.096Z,17.75
2023-05-09T08:48:17.464Z,17.78
2023-05-09T08:50:45.171Z,16.61
2023-05-09T09:01:36.120Z,13.32
2023-05-09T09:04:06.478Z,11.81
2023-05-09T09:06:36.708Z,13.37
2023-05-09T09:09:06.560Z,13.02
2023-05-09T09:11:34.787Z,12.87
2023-05-09T09:14:06.449Z,12.29
2023-05-09T09:16:34.450Z,12.54
2023-05-09T09:19:04.180Z,12.61
2023-05-09T09:21:33.060Z,12.17
2023-05-09T09:24:00.455Z,11.19
2023-05-09T09:26:31.677Z,11.66
2023-05-09T09:28:58.325Z,11.66
2023-05-09T09:31:27.622Z,11.57
2023-05-09T09:34:02.092Z,10.54
2023-05-09T09:36:30.535Z,11.34
2023-05-09T09:39:00.556Z,11.40
2023-05-09T09:41:31.973Z,11.32
2023-05-09T09:43:58.911Z,20.56
2023-05-09T09:46:25.734Z,29.53
2023-05-09T09:48:56.714Z,11.13
2023-05-09T09:51:27.628Z,11.45
2023-05-09T09:53:54.259Z,11.15
2023-05-09T09:56:22.178Z,10.64
2023-05-09T09:58:48.786Z,10.18
2023-05-09T10:01:16.680Z,9.51
2023-05-09T10:03:48.167Z,10.23
2023-05-09T10:06:16.737Z,9.10
2023-05-09T10:08:49.180Z,8.49
2023-05-09T10:11:15.950Z,9.51
2023-05-09T10:13:44.397Z,9.53
2023-05-09T10:16:12.792Z,10.41
2023-05-09T10:18:43.029Z,10.48
2023-05-09T10:21:15.348Z,10.34
2023-05-09T10:23:48.433Z,10.62
2023-05-09T10:26:27.347Z,9.93
2023-05-09T10:28:57.071Z,10.23
2023-05-09T10:31:28.144Z,10.77
2023-05-09T10:33:56.034Z,9.49
2023-05-09T10:36:26.695Z,9.57
2023-05-09T10:38:55.009Z,9.88
2023-05-09T10:41:22.395Z,10.03
2023-05-09T10:43:49.626Z,10.48
2023-05-09T10:46:17.425Z,10.83
2023-05-09T10:48:45.486Z,10.73
2023-05-09T10:51:13.492Z,10.67
2023-05-09T10:53:48.527Z,10.58
2023-05-09T10:56:33.084Z,11.08
2023-05-09T10:59:00.351Z,10.57
2023-05-09T11:01:37.028Z,10.28
2023-05-09T11:04:12.923Z,10.25
2023-05-09T11:06:51.284Z,10.86
2023-05-09T11:09:39.010Z,11.06
2023-05-09T11:12:05.830Z,10.46
2023-05-09T11:14:35.690Z,10.91
2023-05-09T11:17:04.993Z,10.22
2023-05-09T11:19:57.772Z,9.04
2023-05-09T11:22:32.096Z,9.54
2023-05-09T11:25:05.916Z,9.25
2023-05-09T11:27:49.488Z,9.42
2023-05-09T11:30:18.766Z,8.18
2023-05-09T11:33:00.561Z,10.06
2023-05-09T11:35:27.936Z,10.02
2023-05-09T11:38:03.876Z,9.77
2023-05-09T11:40:32.057Z,10.26
2023-05-09T11:43:00.209Z,9.85
2023-05-09T11:45:32.234Z,9.63
2023-05-09T11:48:01.071Z,9.74
2023-05-09T11:50:28.592Z,9.93
2023-05-09T11:52:55.260Z,10.41
2023-05-09T11:55:22.897Z,10.21
2023-05-09T11:57:52.260Z,9.94
2023-05-09T12:00:21.538Z,10.02
2023-05-09T12:02:50.110Z,9.84
2023-05-09T12:05:19.073Z,9.46
2023-05-09T12:07:47.019Z,8.62
2023-05-09T12:10:16.201Z,9.53
2023-05-09T12:12:45.662Z,10.26
2023-05-09T12:15:16.912Z,10.18
2023-05-09T12:17:47.098Z,10.66
2023-05-09T12:20:15.041Z,10.13
2023-05-09T12:22:52.647Z,9.64
2023-05-09T12:25:19.213Z,9.12
2023-05-09T12:27:45.945Z,9.78
2023-05-09T12:30:15.965Z,9.58
2023-05-09T12:32:43.555Z,9.35
2023-05-09T12:35:12.050Z,9.46
2023-05-09T12:37:39.224Z,9.92
2023-05-09T12:40:11.313Z,10.01
2023-05-09T12:42:38.993Z,10.05
2023-05-09T12:45:08.806Z,9.43
2023-05-09T12:47:35.660Z,9.47
2023-05-09T12:50:04.905Z,9.48
2023-05-09T12:52:41.607Z,9.00
2023-05-09T12:55:14.390Z,8.84
2023-05-09T12:57:42.917Z,8.53
2023-05-09T13:00:12.080Z,8.96
2023-05-09T13:02:41.993Z,9.16
2023-05-09T13:05:12.920Z,8.85
2023-05-09T13:07:45.447Z,8.63
2023-05-09T13:10:19.380Z,8.84
2023-05-09T13:12:48.323Z,8.93
2023-05-09T13:15:17.174Z,9.07
2023-05-09T13:17:44.184Z,7.88
2023-05-09T13:20:11.039Z,8.72
2023-05-09T13:22:37.853Z,8.52
2023-05-09T13:25:05.144Z,8.53
2023-05-09T13:27:32.897Z,8.25
2023-05-09T13:29:59.957Z,8.19
2023-05-09T13:32:26.648Z,7.55
2023-05-09T13:34:53.374Z,8.01
2023-05-09T13:37:20.085Z,7.97
2023-05-09T13:39:46.758Z,7.58
2023-05-09T13:42:13.581Z,7.04
2023-05-09T13:44:40.325Z,7.24
2023-05-09T13:47:07.808Z,7.17
2023-05-09T13:49:34.792Z,7.42
2023-05-09T13:52:01.532Z,7.17
2023-05-09T13:54:29.757Z,7.83
2023-05-09T13:56:56.360Z,7.55
2023-05-09T13:59:22.921Z,7.16
2023-05-09T14:01:49.659Z,7.25
2023-05-09T14:04:16.434Z,7.07
2023-05-09T14:06:48.082Z,6.47
2023-05-09T14:09:15.640Z,7.16
2023-05-09T14:11:42.739Z,7.68
2023-05-09T14:14:09.336Z,7.87
2023-05-09T14:16:36.159Z,7.40
2023-05-09T14:19:02.826Z,7.34
2023-05-09T14:21:29.377Z,6.54
2023-05-09T14:23:55.950Z,6.33
2023-05-09T14:26:22.803Z,6.10
2023-05-09T14:28:49.405Z,6.28
2023-05-09T14:31:16.064Z,6.29
2023-05-09T14:33:42.645Z,5.88
2023-05-09T14:36:09.338Z,5.60
2023-05-09T14:38:36.829Z,5.44
2023-05-09T14:41:04.242Z,5.86
2023-05-09T14:43:30.834Z,5.92
2023-05-09T14:45:57.435Z,5.32
2023-05-09T14:48:23.987Z,5.85
2023-05-09T14:50:53.599Z,5.64
2023-05-09T14:53:20.254Z,5.50
2023-05-09T14:55:47.130Z,5.49
2023-05-09T14:58:14.351Z,5.28
2023-05-09T15:00:40.928Z,5.34
2023-05-09T15:03:07.552Z,5.38
2023-05-09T15:05:34.135Z,5.52
2023-05-09T15:08:01.030Z,5.86
2023-05-09T15:10:27.837Z,5.95
2023-05-09T15:12:55.248Z,6.00
2023-05-09T15:15:24.142Z,5.94
2023-05-09T15:17:52.374Z,6.69
2023-05-09T15:20:19.626Z,6.39
2023-05-09T15:22:50.513Z,5.98
2023-05-09T15:25:17.376Z,6.01
2023-05-09T15:27:44.075Z,6.53
2023-05-09T15:30:11.734Z,6.02
2023-05-09T15:32:39.810Z,5.90
2023-05-09T15:35:07.325Z,6.32
2023-05-09T15:37:35.846Z,6.23
2023-05-09T15:40:02.819Z,5.39
2023-05-09T15:42:29.572Z,5.53
2023-05-09T15:44:56.604Z,5.85
2023-05-09T15:47:23.248Z,5.93
2023-05-09T15:49:49.949Z,5.15
2023-05-09T15:52:16.938Z,4.92
2023-05-09T15:54:45.193Z,5.12
2023-05-09T15:57:13.305Z,5.73
2023-05-09T15:59:40.217Z,5.48
2023-05-09T16:02:06.961Z,4.93
2023-05-09T16:04:33.688Z,4.60
2023-05-09T16:07:03.746Z,5.24
2023-05-09T16:09:30.385Z,4.38
2023-05-09T16:11:57.048Z,4.26
2023-05-09T16:14:23.747Z,4.43
2023-05-09T16:16:52.439Z,4.12
2023-05-09T16:19:19.074Z,4.24
2023-05-09T16:21:46.794Z,3.96
2023-05-09T16:24:13.473Z,3.74
2023-05-09T16:26:40.155Z,3.50
2023-05-09T16:29:06.829Z,3.52
2023-05-09T16:31:35.698Z,3.08
2023-05-09T16:34:03.000Z,3.71
2023-05-09T16:36:30.316Z,3.50
2023-05-09T16:38:56.964Z,3.74
2023-05-09T16:41:23.668Z,3.72
2023-05-09T16:43:50.280Z,3.70
2023-05-09T16:46:17.005Z,3.79
2023-05-09T16:48:43.648Z,4.07
2023-05-09T16:51:10.244Z,4.33
2023-05-09T16:53:36.811Z,4.60
2023-05-09T16:56:04.359Z,4.19
2023-05-09T16:58:31.044Z,4.30
2023-05-09T17:00:59.876Z,4.77
2023-05-09T17:03:26.443Z,4.66
2023-05-09T17:05:53.018Z,4.37
2023-05-09T17:08:19.753Z,4.19
2023-05-09T17:10:46.394Z,3.91
2023-05-09T17:13:12.991Z,4.11
2023-05-09T17:15:39.789Z,4.08
2023-05-09T17:18:06.465Z,4.07
2023-05-09T17:20:33.184Z,4.19
2023-05-09T17:22:59.771Z,4.50
2023-05-09T17:25:26.486Z,4.78
2023-05-09T17:27:53.631Z,4.44
2023-05-09T17:30:22.686Z,4.49
2023-05-09T17:32:50.227Z,4.41
2023-05-09T17:35:19.345Z,4.72
2023-05-09T17:37:46.225Z,4.67
2023-05-09T17:40:13.255Z,5.32
2023-05-09T17:42:40.389Z,5.32
2023-05-09T17:45:07.825Z,5.68
2023-05-09T17:47:34.416Z,5.63
2023-05-09T17:50:01.222Z,5.81
2023-05-09T17:52:27.878Z,6.15
2023-05-09T17:54:54.453Z,5.99
2023-05-09T17:57:21.065Z,6.26
2023-05-09T17:59:48.044Z,7.04
2023-05-09T18:02:14.731Z,7.34
2023-05-09T18:04:41.433Z,8.19
2023-05-09T18:07:08.290Z,8.54
2023-05-09T18:09:34.929Z,7.77
2023-05-09T18:12:01.478Z,7.34
2023-05-09T18:14:28.467Z,7.52
2023-05-09T18:16:55.062Z,7.43
2023-05-09T18:19:21.720Z,7.46
2023-05-09T18:21:48.326Z,7.28
2023-05-09T18:24:16.918Z,7.03
2023-05-09T18:26:43.729Z,7.37
2023-05-09T18:29:10.378Z,7.56
2023-05-09T18:31:38.881Z,7.65
2023-05-09T18:34:06.060Z,8.03
2023-05-09T18:36:33.256Z,7.69
2023-05-09T18:38:59.902Z,6.84
2023-05-09T18:41:26.730Z,6.71
2023-05-09T18:43:53.297Z,7.11
2023-05-09T18:46:21.255Z,7.16
2023-05-09T18:48:50.859Z,7.67
2023-05-09T18:51:18.702Z,7.86
2023-05-09T18:53:47.329Z,8.22
2023-05-09T18:56:14.429Z,8.26
2023-05-09T18:58:41.376Z,8.38
2023-05-09T19:01:11.437Z,8.77
2023-05-09T19:03:45.853Z,9.63
2023-05-09T19:06:13.877Z,9.18
2023-05-09T19:08:41.967Z,8.59
2023-05-09T19:11:08.981Z,8.37
2023-05-09T19:13:38.474Z,8.66
2023-05-09T19:16:06.904Z,8.97
2023-05-09T19:18:34.057Z,8.62
2023-05-09T19:21:01.585Z,8.58
2023-05-09T19:23:28.427Z,8.86
2023-05-09T19:25:55.480Z,8.95
2023-05-09T19:28:22.999Z,9.03
2023-05-09T19:30:50.401Z,9.21
2023-05-09T19:33:17.774Z,9.49
2023-05-09T19:35:44.560Z,9.22
2023-05-09T19:38:12.048Z,9.20
2023-05-09T19:40:39.677Z,9.05
2023-05-09T19:43:06.270Z,8.84
2023-05-09T19:45:32.872Z,8.57
2023-05-09T19:47:59.660Z,7.72
2023-05-09T19:50:26.374Z,7.59
2023-05-09T19:52:52.933Z,7.13
2023-05-09T19:55:19.548Z,6.54
2023-05-09T19:57:46.667Z,6.01
2023-05-09T20:00:13.913Z,5.48
2023-05-09T20:02:40.890Z,5.39
2023-05-09T20:05:07.925Z,4.81
2023-05-09T20:07:34.488Z,5.03
2023-05-09T20:10:01.046Z,5.20
2023-05-09T20:12:29.929Z,5.33
2023-05-09T20:14:56.872Z,5.46
2023-05-09T20:17:23.564Z,5.46
2023-05-09T20:19:50.156Z,5.21
2023-05-09T20:22:16.831Z,5.27
2023-05-09T20:24:43.415Z,5.37
2023-05-09T20:27:09.994Z,5.76
2023-05-09T20:29:36.681Z,5.97
2023-05-09T20:32:03.550Z,6.08
2023-05-09T20:34:30.253Z,5.80
2023-05-09T20:36:56.846Z,5.90
2023-05-09T20:39:24.473Z,5.73
2023-05-09T20:41:52.065Z,5.47
2023-05-09T20:44:19.233Z,5.49
2023-05-09T20:46:46.162Z,5.55
2023-05-09T20:49:13.073Z,5.63
2023-05-09T20:51:39.762Z,5.62
2023-05-09T20:54:07.096Z,5.66
2023-05-09T20:56:35.323Z,5.81
2023-05-09T20:59:04.108Z,5.87
2023-05-09T21:01:36.683Z,6.14
2023-05-09T21:04:05.571Z,6.25
2023-05-09T21:06:33.082Z,6.20
2023-05-09T21:08:59.759Z,6.63
2023-05-09T21:11:26.415Z,6.84
2023-05-09T21:13:52.984Z,7.09
2023-05-09T21:16:19.775Z,7.16
2023-05-09T21:18:46.436Z,7.43
2023-05-09T21:21:13.129Z,7.63
2023-05-09T21:23:39.914Z,8.23
2023-05-09T21:26:06.635Z,8.51
2023-05-09T21:28:33.512Z,8.65
2023-05-09T21:31:01.561Z,8.69
2023-05-09T21:33:28.306Z,8.92
2023-05-09T21:35:54.956Z,9.45
2023-05-09T21:38:21.594Z,10.09
2023-05-09T21:40:50.536Z,10.08
2023-05-09T21:43:18.260Z,10.27
2023-05-09T21:45:45.545Z,10.34
2023-05-09T21:48:12.209Z,10.92
2023-05-09T21:50:38.951Z,11.56
2023-05-09T21:53:05.906Z,12.01
2023-05-09T21:55:32.483Z,12.44
2023-05-09T21:57:59.083Z,12.19
2023-05-09T22:00:25.660Z,12.95
2023-05-09T22:02:52.482Z,13.19
2023-05-09T22:05:19.182Z,13.26
2023-05-09T22:07:45.825Z,13.13
2023-05-09T22:10:12.459Z,12.84
2023-05-09T22:12:39.053Z,13.27
2023-05-09T22:15:06.282Z,13.35
2023-05-09T22:17:33.224Z,13.57
2023-05-09T22:19:59.827Z,13.81
2023-05-09T22:22:27.092Z,13.97
2023-05-09T22:24:53.825Z,14.10
2023-05-09T22:27:20.752Z,14.20
2023-05-09T22:29:47.426Z,14.33
2023-05-09T22:32:14.262Z,14.16
2023-05-09T22:34:40.865Z,14.44
2023-05-09T22:37:07.522Z,15.02
2023-05-09T22:39:34.204Z,15.33
2023-05-09T22:42:02.480Z,15.68
2023-05-09T22:44:29.137Z,16.38
2023-05-09T22:46:55.799Z,16.01
2023-05-09T22:49:22.381Z,16.26
2023-05-09T22:51:49.075Z,17.01
2023-05-09T22:54:20.477Z,16.95
2023-05-09T22:56:47.438Z,16.94
2023-05-09T22:59:14.228Z,17.40
2023-05-09T23:01:40.869Z,17.05
2023-05-09T23:04:07.553Z,16.63
2023-05-09T23:06:34.237Z,16.91
2023-05-09T23:09:00.932Z,18.01
2023-05-09T23:11:27.566Z,17.42
2023-05-09T23:13:54.175Z,16.82
2023-05-09T23:16:20.941Z,16.56
2023-05-09T23:18:47.685Z,17.04
2023-05-09T23:21:14.348Z,17.34
2023-05-09T23:23:40.937Z,17.89
2023-05-09T23:26:07.547Z,17.92
2023-05-09T23:28:34.360Z,17.41
2023-05-09T23:31:01.283Z,17.74
2023-05-09T23:33:27.897Z,17.42
2023-05-09T23:35:54.537Z,17.78
2023-05-09T23:38:21.136Z,17.94
2023-05-09T23:40:47.713Z,18.15
2023-05-09T23:43:14.373Z,18.65
2023-05-09T23:45:41.184Z,18.99
2023-05-09T23:48:07.883Z,18.85
2023-05-09T23:50:34.596Z,20.33
2023-05-09T23:53:01.490Z,19.13
2023-05-09T23:55:28.097Z,19.54
2023-05-09T23:57:54.712Z,19.49
